Time;durP1;ratioP1;P1;durP2;ratioP2;P2;SDS_P1;SDS_P2;PMS_P1;PMS_P2;Temp;Humidity;BMP_temperature;BMP_pressure;BME280_temperature;BME280_humidity;BME280_pressure;Samples;Min_cycle;Max_cycle;Signal;HPM_P1;HPM_P2
2021/01/30 00:00:01;;;;;;;23.40;12.75;;;;;;;3.96;41.33;99102.31;1827844;78;21030;-76
2021/01/30 00:02:30;;;;;;;22.07;12.90;;;;;;;3.96;41.29;99095.70;1827762;78;21587;-77
2021/01/30 00:04:59;;;;;;;23.32;12.73;;;;;;;3.94;41.29;99106.08;1827671;78;21157;-77
2021/01/30 00:07:26;;;;;;;21.97;12.93;;;;;;;3.92;41.33;99105.41;1827851;78;21124;-76
2021/01/30 00:09:54;;;;;;;20.70;12.10;;;;;;;3.90;41.26;99104.22;1827904;78;22441;-76
2021/01/30 00:12:21;;;;;;;26.73;15.00;;;;;;;3.88;41.32;99109.34;1828199;78;21064;-76
2021/01/30 00:14:49;;;;;;;27.58;15.48;;;;;;;3.86;41.32;99102.02;1828004;78;21153;-78
2021/01/30 00:17:17;;;;;;;30.48;15.53;;;;;;;3.86;41.38;99106.85;1828510;78;21152;-77
2021/01/30 00:19:45;;;;;;;42.00;20.48;;;;;;;3.84;41.37;99102.17;1827817;78;21166;-78
2021/01/30 00:22:18;;;;;;;40.43;19.95;;;;;;;3.83;41.36;99104.48;1827564;78;21320;-78
2021/01/30 00:24:47;;;;;;;40.15;19.95;;;;;;;3.83;41.27;99105.81;1827827;78;21176;-78
2021/01/30 00:27:18;;;;;;;32.67;17.23;;;;;;;3.86;41.23;99112.61;1799053;78;21195;-77
2021/01/30 00:29:47;;;;;;;44.73;21.75;;;;;;;3.87;41.22;99116.95;1827989;78;21200;-76
2021/01/30 00:32:18;;;;;;;44.80;22.58;;;;;;;3.85;41.13;99113.10;1828241;78;21634;-76
2021/01/30 00:34:46;;;;;;;38.92;19.00;;;;;;;3.84;41.06;99110.13;1827878;78;22708;-76
2021/01/30 00:37:20;;;;;;;48.02;24.10;;;;;;;3.82;41.08;99112.09;1828088;78;21605;-75
2021/01/30 00:39:52;;;;;;;49.05;22.45;;;;;;;3.77;41.16;99106.38;1828053;78;21405;-76
2021/01/30 00:42:23;;;;;;;53.15;24.65;;;;;;;3.74;41.10;99110.17;1828071;78;21670;-76
2021/01/30 00:44:52;;;;;;;53.55;27.75;;;;;;;3.71;41.11;99108.31;1827891;78;21149;-76
2021/01/30 00:47:21;;;;;;;51.25;25.52;;;;;;;3.68;41.08;99124.48;1828056;78;21536;-76
2021/01/30 00:49:48;;;;;;;49.35;24.87;;;;;;;3.66;40.93;99122.48;1827829;78;21652;-76
2021/01/30 00:52:19;;;;;;;40.70;22.60;;;;;;;3.65;40.91;99123.47;1827712;78;21144;-77
2021/01/30 00:54:49;;;;;;;32.75;19.00;;;;;;;3.59;41.04;99126.69;1827280;78;21168;-76
2021/01/30 00:57:17;;;;;;;38.63;19.98;;;;;;;3.55;40.99;99127.00;1828168;78;21133;-79
2021/01/30 00:59:45;;;;;;;49.83;25.77;;;;;;;3.51;41.00;99129.59;1797923;78;21387;-77
2021/01/30 01:02:13;;;;;;;60.03;26.27;;;;;;;3.43;41.07;99130.80;1797976;78;21212;-77
2021/01/30 01:04:43;;;;;;;68.15;31.95;;;;;;;3.45;41.10;99132.83;1797674;78;21659;-77
2021/01/30 01:07:13;;;;;;;63.38;30.60;;;;;;;3.40;41.12;99131.57;1828219;78;21152;-77
2021/01/30 01:09:43;;;;;;;69.45;33.95;;;;;;;3.38;41.17;99133.55;1827708;78;21172;-76
2021/01/30 01:12:11;;;;;;;66.40;33.42;;;;;;;3.36;41.24;99136.80;1827780;78;21369;-79
2021/01/30 01:14:39;;;;;;;67.35;32.95;;;;;;;3.39;41.27;99132.55;1826944;78;21188;-76
2021/01/30 01:17:07;;;;;;;67.50;35.48;;;;;;;3.25;41.54;99135.18;1828040;78;21511;-77
2021/01/30 01:19:35;;;;;;;81.00;43.80;;;;;;;3.26;41.43;99135.52;1827991;78;21602;-76
2021/01/30 01:22:03;;;;;;;76.35;40.55;;;;;;;3.16;41.59;99131.58;1827931;78;21157;-77
2021/01/30 01:24:31;;;;;;;74.42;39.65;;;;;;;3.11;41.81;99136.47;1828046;78;21911;-78
2021/01/30 01:26:59;;;;;;;74.70;38.23;;;;;;;3.11;41.87;99143.58;1827922;78;21176;-76
2021/01/30 01:29:27;;;;;;;78.83;41.42;;;;;;;3.09;41.87;99138.91;1827791;78;21144;-77
2021/01/30 01:31:56;;;;;;;87.80;44.23;;;;;;;3.07;41.93;99139.05;1827943;78;21124;-78
2021/01/30 01:34:28;;;;;;;74.90;40.00;;;;;;;3.07;41.96;99136.41;1828060;78;21494;-77
2021/01/30 01:37:05;;;;;;;69.12;36.45;;;;;;;3.07;41.96;99144.84;1828053;78;21310;-78
2021/01/30 01:39:34;;;;;;;67.50;35.17;;;;;;;3.07;42.02;99139.55;1827978;78;21179;-77
2021/01/30 01:42:15;;;;;;;55.48;31.60;;;;;;;3.04;42.01;99142.84;1828000;78;21145;-77
2021/01/30 01:44:43;;;;;;;56.02;29.15;;;;;;;3.03;42.02;99138.98;1827719;78;21109;-77
2021/01/30 01:47:37;;;;;;;51.68;26.73;;;;;;;3.02;42.05;99132.87;1828150;78;21607;-77
2021/01/30 01:50:08;;;;;;;50.05;26.50;;;;;;;3.01;42.04;99137.82;1827905;78;21449;-77
2021/01/30 01:52:38;;;;;;;49.27;25.48;;;;;;;3.03;42.11;99135.02;1827763;78;21211;-77
2021/01/30 01:55:11;;;;;;;37.75;20.85;;;;;;;3.03;42.00;99132.37;1828277;78;21391;-78
2021/01/30 01:57:46;;;;;;;42.05;22.07;;;;;;;3.02;41.96;99138.16;1827997;78;21168;-77
2021/01/30 02:00:15;;;;;;;37.20;20.62;;;;;;;3.00;41.91;99141.45;1828311;78;21125;-77
2021/01/30 02:02:44;;;;;;;39.27;20.90;;;;;;;2.98;41.84;99131.48;1827999;78;21872;-77
2021/01/30 02:05:19;;;;;;;35.00;20.25;;;;;;;2.98;42.00;99138.59;1797190;78;21196;-79
2021/01/30 02:07:47;;;;;;;47.05;24.80;;;;;;;2.98;41.99;99138.59;1827824;78;21155;-77
2021/01/30 02:10:18;;;;;;;41.80;23.15;;;;;;;2.97;41.83;99142.22;1798311;78;20999;-77
2021/01/30 02:12:46;;;;;;;41.28;21.12;;;;;;;2.96;41.87;99150.64;1827870;78;21200;-78
2021/01/30 02:15:15;;;;;;;38.05;21.57;;;;;;;2.95;41.91;99147.66;1827622;78;21798;-77
2021/01/30 02:18:23;;;;;;;48.50;22.25;;;;;;;2.94;41.85;99151.25;1827688;78;21165;-77
2021/01/30 02:21:14;;;;;;;37.55;19.37;;;;;;;2.92;41.81;99153.22;1827859;78;21096;-77
2021/01/30 02:23:59;;;;;;;41.60;23.38;;;;;;;2.90;41.76;99147.71;1826864;78;21148;-77
2021/01/30 02:26:38;;;;;;;35.17;20.08;;;;;;;2.89;41.89;99156.14;1824130;78;21365;-77
2021/01/30 02:29:29;;;;;;;39.75;22.22;;;;;;;2.92;41.73;99149.74;1827922;78;21319;-77
2021/01/30 02:32:32;;;;;;;36.30;21.20;;;;;;;2.90;41.67;99150.36;1827741;78;21215;-77
2021/01/30 02:35:17;;;;;;;32.53;18.77;;;;;;;2.87;41.70;99150.66;1827842;78;21148;-77
2021/01/30 02:38:09;;;;;;;37.63;21.10;;;;;;;2.84;41.82;99153.58;1827216;78;21149;-78
2021/01/30 02:40:43;;;;;;;31.23;19.27;;;;;;;2.81;41.69;99144.09;1827971;78;21161;-78
2021/01/30 02:43:16;;;;;;;33.02;17.90;;;;;;;2.80;41.68;99143.76;1828090;78;22229;-77
2021/01/30 02:45:52;;;;;;;31.70;18.00;;;;;;;2.81;41.72;99141.45;1827950;78;21181;-77
2021/01/30 02:48:27;;;;;;;32.42;18.57;;;;;;;2.81;41.82;99145.42;1827910;78;21149;-77
2021/01/30 02:50:58;;;;;;;28.32;16.48;;;;;;;2.80;41.81;99137.15;1827786;78;21786;-77
2021/01/30 02:53:36;;;;;;;26.02;15.85;;;;;;;2.82;41.82;99137.86;1827446;78;21092;-77
2021/01/30 02:56:05;;;;;;;30.85;18.32;;;;;;;2.83;41.87;99129.44;1827286;78;21188;-76
2021/01/30 02:58:40;;;;;;;31.27;17.30;;;;;;;2.84;41.96;99137.22;1827515;78;21212;-77
2021/01/30 03:01:07;;;;;;;37.90;21.40;;;;;;;2.85;41.97;99139.37;1827626;78;21124;-76
2021/01/30 03:03:35;;;;;;;32.42;18.25;;;;;;;2.85;41.93;99138.88;1827717;78;21172;-77
2021/01/30 03:06:21;;;;;;;43.95;25.25;;;;;;;2.86;42.04;99137.92;1828115;78;21171;-78
2021/01/30 03:08:55;;;;;;;47.17;24.15;;;;;;;2.87;41.97;99129.50;1827981;78;21794;-77
2021/01/30 03:11:39;;;;;;;34.35;19.75;;;;;;;2.85;42.02;99132.27;1827746;78;21164;-77
2021/01/30 03:14:17;;;;;;;38.33;23.12;;;;;;;2.87;42.08;99129.02;1827458;78;21153;-79
2021/01/30 03:16:45;;;;;;;40.12;21.93;;;;;;;2.84;41.93;99124.00;1827788;78;21200;-78
2021/01/30 03:19:21;;;;;;;35.85;20.72;;;;;;;2.87;42.04;99121.08;1798350;78;21152;-77
2021/01/30 03:21:54;;;;;;;31.97;20.45;;;;;;;2.87;42.13;99122.40;1827889;78;21420;-78
2021/01/30 03:24:21;;;;;;;40.05;23.98;;;;;;;2.88;42.05;99112.66;1799406;78;20938;-77
2021/01/30 03:26:49;;;;;;;43.20;24.15;;;;;;;2.89;41.94;99109.85;1828024;78;21137;-78
2021/01/30 03:29:18;;;;;;;31.02;19.07;;;;;;;2.89;41.94;99111.17;1828230;78;21109;-77
2021/01/30 03:31:46;;;;;;;39.30;21.40;;;;;;;2.90;41.89;99110.69;1827896;78;21177;-77
2021/01/30 03:34:15;;;;;;;38.78;22.52;;;;;;;2.88;41.95;99102.08;1828010;78;21362;-78
2021/01/30 03:36:43;;;;;;;33.25;20.90;;;;;;;2.81;42.11;99100.47;1827730;78;21220;-78
2021/01/30 03:39:15;;;;;;;34.35;20.95;;;;;;;2.82;42.11;99099.52;1827960;78;21204;-77
2021/01/30 03:41:43;;;;;;;36.13;20.82;;;;;;;2.82;42.21;99095.55;1827929;78;21168;-79
2021/01/30 03:44:14;;;;;;;41.77;24.55;;;;;;;2.79;42.18;99094.01;1828317;78;21703;-78
2021/01/30 03:46:43;;;;;;;43.25;24.07;;;;;;;2.80;42.11;99096.16;1827999;78;21792;-77
2021/01/30 03:49:11;;;;;;;44.73;26.60;;;;;;;2.81;41.96;99088.57;1828093;78;21165;-77
2021/01/30 03:51:39;;;;;;;45.80;26.12;;;;;;;2.80;42.06;99091.70;1827906;78;21152;-79
2021/01/30 03:54:07;;;;;;;46.02;25.20;;;;;;;2.81;42.11;99097.83;1828147;78;21144;-78
2021/01/30 03:56:34;;;;;;;49.10;27.65;;;;;;;2.81;42.09;99097.83;1828150;78;21169;-78
2021/01/30 03:59:02;;;;;;;52.48;29.82;;;;;;;2.80;42.08;99094.84;1827996;78;21202;-79
2021/01/30 04:01:33;;;;;;;50.38;29.37;;;;;;;2.80;42.02;99089.55;1798124;78;21516;-79
2021/01/30 04:04:02;;;;;;;50.52;29.75;;;;;;;2.80;42.07;99086.42;1827564;78;21224;-79
2021/01/30 04:06:30;;;;;;;50.92;28.30;;;;;;;2.83;42.00;99090.60;1828134;78;21353;-78
2021/01/30 04:08:58;;;;;;;81.60;42.70;;;;;;;2.80;41.96;99090.38;1828012;78;21613;-79
2021/01/30 04:11:28;;;;;;;88.40;42.75;;;;;;;2.77;41.87;99095.11;1828105;78;21187;-78
2021/01/30 04:13:56;;;;;;;96.47;45.95;;;;;;;2.76;41.87;99092.13;1828073;78;21176;-78
2021/01/30 04:16:24;;;;;;;105.15;50.45;;;;;;;2.75;41.89;99090.47;1828058;78;21129;-78
2021/01/30 04:18:52;;;;;;;99.37;44.23;;;;;;;2.73;41.77;99087.98;1826061;78;21579;-78
2021/01/30 04:21:20;;;;;;;112.83;50.23;;;;;;;2.72;41.81;99097.35;1823290;78;21563;-77
2021/01/30 04:23:48;;;;;;;108.15;46.63;;;;;;;2.69;41.71;99097.66;1824185;78;21792;-79
2021/01/30 04:26:17;;;;;;;104.97;43.92;;;;;;;2.64;41.60;99105.18;1807242;78;21193;-78
2021/01/30 04:28:47;;;;;;;137.15;49.50;;;;;;;2.59;41.75;99101.64;1808457;78;21198;-77
2021/01/30 04:31:15;;;;;;;146.60;51.37;;;;;;;2.58;41.77;99097.79;1826175;77;21108;-76
2021/01/30 04:33:46;;;;;;;150.32;52.53;;;;;;;2.53;41.75;99101.69;1822457;78;21172;-79
2021/01/30 04:36:15;;;;;;;143.45;53.52;;;;;;;2.46;41.76;99103.24;1823305;78;21395;-77
2021/01/30 04:38:43;;;;;;;108.12;46.80;;;;;;;2.41;41.80;99104.15;1806030;78;21196;-77
2021/01/30 04:41:32;;;;;;;92.45;42.78;;;;;;;2.32;41.86;99097.52;1808783;78;21204;-77
2021/01/30 04:44:11;;;;;;;106.07;47.83;;;;;;;2.22;41.93;99091.74;1819623;78;21148;-76
2021/01/30 04:47:19;;;;;;;85.30;41.42;;;;;;;2.06;41.98;99087.52;1822180;78;21192;-78
2021/01/30 04:50:08;;;;;;;76.97;39.60;;;;;;;1.92;42.45;99088.75;1821952;78;21208;-81
2021/01/30 04:52:50;;;;;;;69.00;33.63;;;;;;;1.93;42.83;99090.41;1822970;78;21634;-77
2021/01/30 04:56:01;;;;;;;83.47;40.25;;;;;;;1.98;42.87;99099.24;1822233;78;21599;-78
2021/01/30 04:58:50;;;;;;;66.75;34.73;;;;;;;2.03;42.84;99084.64;1822208;78;21174;-77
2021/01/30 05:01:51;;;;;;;80.50;39.58;;;;;;;2.11;42.79;99095.85;1823568;78;21058;-77
2021/01/30 05:04:27;;;;;;;77.97;39.23;;;;;;;2.16;42.93;99083.06;1818287;78;21439;-76
2021/01/30 05:07:32;;;;;;;62.95;31.73;;;;;;;2.21;42.90;99078.19;1812266;78;21101;-77
2021/01/30 05:10:05;;;;;;;61.58;31.40;;;;;;;2.19;42.55;99087.25;1822560;78;21172;-77
2021/01/30 05:13:04;;;;;;;59.65;30.00;;;;;;;2.05;42.70;99096.41;1818570;78;21243;-77
2021/01/30 05:15:56;;;;;;;76.67;36.55;;;;;;;1.90;42.75;99091.99;1822607;78;21551;-76
2021/01/30 05:18:35;;;;;;;67.82;33.85;;;;;;;1.67;43.01;99096.67;1822437;78;22136;-78
2021/01/30 05:21:15;;;;;;;77.53;37.53;;;;;;;1.52;43.32;99108.09;1822584;78;21207;-76
2021/01/30 05:23:46;;;;;;;91.87;42.05;;;;;;;1.47;43.54;99108.15;1804779;78;21714;-77
2021/01/30 05:26:43;;;;;;;89.87;43.00;;;;;;;1.47;43.66;99110.79;1855498;77;21554;-77
2021/01/30 05:29:31;;;;;;;104.60;49.30;;;;;;;1.48;43.70;99118.56;1819630;78;21696;-76
2021/01/30 05:32:18;;;;;;;84.03;42.05;;;;;;;1.56;44.00;99130.27;1824947;78;21372;-77
2021/01/30 05:34:52;;;;;;;80.80;40.95;;;;;;;1.67;43.88;99137.58;1855136;77;21202;-76
2021/01/30 05:37:51;;;;;;;99.95;49.18;;;;;;;1.78;43.62;99144.58;1856282;77;21146;-78
2021/01/30 05:40:44;;;;;;;77.87;36.95;;;;;;;1.87;43.57;99146.41;1850976;77;21134;-79
2021/01/30 05:43:23;;;;;;;53.73;28.62;;;;;;;1.98;43.27;99158.17;1855862;77;21183;-78
2021/01/30 05:45:55;;;;;;;42.15;22.67;;;;;;;1.98;43.22;99154.70;1856073;77;22288;-76
2021/01/30 05:48:29;;;;;;;34.27;19.67;;;;;;;2.08;43.07;99152.91;1855888;77;21177;-78
2021/01/30 05:51:29;;;;;;;37.90;22.82;;;;;;;2.12;42.84;99160.08;1855637;77;21626;-77
2021/01/30 05:53:57;;;;;;;43.92;23.83;;;;;;;2.15;42.75;99158.50;1855428;77;21773;-78
2021/01/30 05:56:25;;;;;;;47.50;26.70;;;;;;;2.20;43.00;99156.27;1855471;77;21200;-78
2021/01/30 05:58:52;;;;;;;60.20;32.70;;;;;;;2.24;42.66;99159.00;1848075;77;21369;-78
2021/01/30 06:01:27;;;;;;;83.45;47.80;;;;;;;2.15;42.35;99147.92;1781171;80;21189;-79
2021/01/30 06:04:07;;;;;;;132.97;81.82;;;;;;;2.14;42.70;99147.09;1784887;80;21624;-78
2021/01/30 06:06:52;;;;;;;120.55;69.03;;;;;;;2.18;42.69;99147.17;1781305;80;21165;-76
2021/01/30 06:09:42;;;;;;;137.50;85.45;;;;;;;2.16;42.54;99151.74;1756563;80;21146;-76
2021/01/30 06:12:27;;;;;;;153.90;94.35;;;;;;;2.12;42.48;99148.19;1781870;80;21204;-76
2021/01/30 06:14:59;;;;;;;165.95;94.67;;;;;;;2.01;42.67;99151.80;1785515;80;21196;-76
2021/01/30 06:17:31;;;;;;;133.60;76.05;;;;;;;1.98;42.92;99145.45;1780324;80;21725;-76
2021/01/30 06:20:17;;;;;;;149.53;84.07;;;;;;;2.02;43.07;99142.41;1785221;80;21145;-76
2021/01/30 06:23:12;;;;;;;128.20;69.87;;;;;;;2.03;43.23;99140.11;1781637;80;21667;-76
2021/01/30 06:25:42;;;;;;;109.32;59.38;;;;;;;2.11;43.45;99134.64;1800908;77;21366;-76
2021/01/30 06:28:29;;;;;;;103.72;58.10;;;;;;;2.17;43.38;99127.48;1855227;77;21179;-77
2021/01/30 06:31:26;;;;;;;120.30;63.58;;;;;;;2.21;43.27;99124.91;1855257;77;21193;-77
2021/01/30 06:34:03;;;;;;;114.85;65.52;;;;;;;2.17;43.36;99122.20;1846431;77;21146;-76
2021/01/30 06:36:32;;;;;;;113.97;61.85;;;;;;;2.12;43.48;99123.09;1814115;79;21161;-77
2021/01/30 06:39:11;;;;;;;94.85;49.83;;;;;;;2.10;43.63;99123.73;1813566;79;22086;-77
2021/01/30 06:41:39;;;;;;;118.08;61.37;;;;;;;2.03;43.83;99115.02;1813832;79;21189;-77
2021/01/30 06:44:27;;;;;;;108.83;54.98;;;;;;;1.90;44.06;99118.88;1813953;79;21144;-77
2021/01/30 06:47:21;;;;;;;82.65;44.35;;;;;;;1.82;44.15;99117.41;1790402;80;21192;-77
2021/01/30 06:49:52;;;;;;;70.72;38.67;;;;;;;1.75;44.42;99111.84;1813883;78;21161;-78
2021/01/30 06:52:27;;;;;;;70.80;36.77;;;;;;;1.73;44.42;99104.55;1791022;80;21373;-77
2021/01/30 06:55:09;;;;;;;50.98;29.02;;;;;;;1.73;44.52;99104.06;1807694;78;21037;-78
2021/01/30 06:57:48;;;;;;;52.65;28.62;;;;;;;1.80;44.52;99092.47;1791039;80;21443;-77
2021/01/30 07:00:24;;;;;;;52.08;27.42;;;;;;;1.91;44.67;99088.41;1791323;77;21183;-77
2021/01/30 07:03:10;;;;;;;56.45;29.40;;;;;;;1.95;44.73;99084.52;1790333;80;21171;-78
2021/01/30 07:05:56;;;;;;;55.08;28.30;;;;;;;1.97;44.87;99089.17;1790799;80;21199;-77
2021/01/30 07:08:40;;;;;;;61.70;30.75;;;;;;;1.98;44.90;99094.80;1793364;78;21679;-77
2021/01/30 07:11:56;;;;;;;44.35;23.35;;;;;;;1.97;45.03;99092.30;1822884;78;21164;-77
2021/01/30 07:14:47;;;;;;;62.67;31.02;;;;;;;2.00;45.07;99084.94;1822924;78;21155;-76
2021/01/30 07:17:40;;;;;;;51.18;25.57;;;;;;;2.07;45.13;99084.38;1823132;78;21415;-77
2021/01/30 07:20:48;;;;;;;71.62;32.65;;;;;;;2.19;45.02;99077.52;1824288;78;21794;-78
2021/01/30 07:23:27;;;;;;;60.43;28.38;;;;;;;2.28;45.14;99068.75;1789843;78;21595;-78
2021/01/30 07:26:06;;;;;;;53.10;26.23;;;;;;;2.45;45.02;99066.36;1793056;78;21319;-77
2021/01/30 07:28:42;;;;;;;54.23;29.77;;;;;;;2.59;44.88;99071.23;1822228;78;21140;-76
2021/01/30 07:31:33;;;;;;;73.42;41.88;;;;;;;2.63;44.89;99076.56;1823140;78;21093;-76
2021/01/30 07:34:29;;;;;;;91.12;51.73;;;;;;;2.61;44.64;99082.49;1823804;78;21198;-78
2021/01/30 07:37:20;;;;;;;95.40;54.67;;;;;;;2.53;44.90;99083.19;1806801;78;21113;-77
2021/01/30 07:40:00;;;;;;;78.90;41.05;;;;;;;2.57;45.01;99072.34;1805601;78;21111;-77
2021/01/30 07:42:54;;;;;;;85.72;50.17;;;;;;;2.60;44.92;99076.87;1837221;77;21158;-77
2021/01/30 07:45:35;;;;;;;75.83;42.38;;;;;;;2.61;45.01;99081.17;1823943;78;21179;-77
2021/01/30 07:48:17;;;;;;;96.28;45.95;;;;;;;2.68;45.43;99085.39;1822982;78;21639;-77
2021/01/30 07:50:50;;;;;;;149.32;66.97;;;;;;;2.76;45.27;99092.13;1818823;77;21748;-77
2021/01/30 07:53:24;;;;;;;106.55;53.30;;;;;;;2.82;45.23;99098.66;1823305;78;21100;-77
2021/01/30 07:56:16;;;;;;;92.82;49.25;;;;;;;2.89;45.26;99096.63;1822157;78;21104;-77
2021/01/30 07:59:07;;;;;;;69.27;39.18;;;;;;;2.77;45.36;99094.66;1796550;79;21268;-77
2021/01/30 08:02:07;;;;;;;79.30;42.62;;;;;;;2.96;45.31;99095.59;1812169;78;21718;-77
2021/01/30 08:05:13;;;;;;;89.90;49.80;;;;;;;3.09;45.33;99095.25;1814245;79;21208;-77
2021/01/30 08:07:56;;;;;;;80.83;48.48;;;;;;;3.20;45.15;99097.25;1795066;77;21175;-77
2021/01/30 08:10:50;;;;;;;90.30;55.00;;;;;;;3.37;45.29;99091.69;1819027;78;21574;-78
2021/01/30 08:13:53;;;;;;;78.05;48.40;;;;;;;3.53;45.03;99093.20;1811380;78;21166;-78
2021/01/30 08:17:00;;;;;;;73.35;44.58;;;;;;;3.73;44.74;99082.53;1808577;79;21374;-77
2021/01/30 08:19:55;;;;;;;73.30;45.65;;;;;;;3.93;44.48;99080.09;1810750;77;21121;-77
2021/01/30 08:22:40;;;;;;;53.55;28.85;;;;;;;4.06;44.28;99084.53;1805183;77;21173;-79
2021/01/30 08:25:12;;;;;;;54.08;29.95;;;;;;;4.15;43.97;99093.40;1811918;77;21076;-76
2021/01/30 08:27:45;;;;;;;49.25;29.32;;;;;;;4.23;43.91;99091.33;1811849;77;21152;-78
2021/01/30 08:30:21;;;;;;;71.22;42.80;;;;;;;4.33;44.00;99090.26;1804556;77;21369;-77
2021/01/30 08:32:59;;;;;;;78.80;49.25;;;;;;;4.43;43.94;99091.50;1803030;77;21677;-77
2021/01/30 08:35:35;;;;;;;66.42;39.35;;;;;;;4.48;44.10;99083.09;1801645;77;21167;-78
2021/01/30 08:38:18;;;;;;;63.42;34.67;;;;;;;4.48;44.11;99100.33;1813317;77;21563;-79
2021/01/30 08:40:55;;;;;;;53.90;31.77;;;;;;;4.36;44.19;99091.79;1797893;77;21175;-78
2021/01/30 08:43:40;;;;;;;47.17;24.50;;;;;;;4.26;44.29;99099.78;1803850;77;22645;-76
2021/01/30 08:46:28;;;;;;;43.90;23.77;;;;;;;4.17;44.48;99097.22;1805658;77;21195;-76
2021/01/30 08:49:15;;;;;;;34.70;19.42;;;;;;;3.99;44.81;99100.67;1817912;77;21164;-78
2021/01/30 08:51:48;;;;;;;37.30;20.00;;;;;;;3.76;45.25;99106.88;1823224;78;21190;-76
2021/01/30 08:54:35;;;;;;;35.10;21.12;;;;;;;3.63;45.94;99095.80;1823138;78;21191;-78
2021/01/30 08:57:03;;;;;;;30.02;16.90;;;;;;;3.67;46.29;99094.52;1822587;78;21363;-77
2021/01/30 08:59:49;;;;;;;25.25;16.67;;;;;;;3.69;46.69;99091.75;1794191;78;21169;-77
2021/01/30 09:02:36;;;;;;;23.60;16.02;;;;;;;3.67;46.96;99089.23;1824284;78;21067;-76
2021/01/30 09:05:27;;;;;;;29.55;17.35;;;;;;;3.60;47.20;99084.69;1824112;78;21084;-76
2021/01/30 09:07:57;;;;;;;29.12;18.02;;;;;;;3.51;47.64;99091.20;1823971;78;21104;-78
2021/01/30 09:10:33;;;;;;;24.90;17.10;;;;;;;3.44;48.06;99087.95;1823873;78;21294;-78
2021/01/30 09:13:09;;;;;;;;;;;;;;;3.40;48.54;99083.44;1810447;78;21105;-77
2021/01/30 09:15:51;;;;;;;17.42;10.65;;;;;;;3.42;48.62;99078.84;1825392;77;20242;-79
2021/01/30 09:18:36;;;;;;;21.27;14.35;;;;;;;3.38;48.86;99080.12;1832966;78;21084;-78
2021/01/30 09:21:26;;;;;;;24.82;16.23;;;;;;;3.31;49.01;99074.56;1832001;78;21179;-77
2021/01/30 09:24:40;;;;;;;23.77;15.83;;;;;;;3.28;49.27;99071.39;1829258;78;22084;-77
2021/01/30 09:27:14;;;;;;;30.62;18.02;;;;;;;3.35;49.47;99072.95;1811936;77;21184;-78
2021/01/30 09:29:44;;;;;;;40.40;23.47;;;;;;;3.36;49.54;99063.56;1809763;77;21167;-77
2021/01/30 09:32:22;;;;;;;32.35;20.20;;;;;;;3.38;49.70;99057.63;1828295;77;21606;-78
2021/01/30 09:35:04;;;;;;;42.48;26.80;;;;;;;3.50;49.80;99055.63;1769194;78;21226;-77
2021/01/30 09:37:44;;;;;;;46.77;27.42;;;;;;;3.56;49.67;99057.17;1809560;77;20966;-77
2021/01/30 09:40:28;;;;;;;46.92;29.18;;;;;;;3.51;49.71;99048.84;1781161;80;21675;-77
2021/01/30 09:43:07;;;;;;;44.63;26.10;;;;;;;3.53;49.84;99048.20;1794041;80;22256;-78
2021/01/30 09:45:37;;;;;;;48.73;27.42;;;;;;;3.54;50.05;99038.44;1773988;78;21863;-78
2021/01/30 09:48:11;;;;;;;50.20;28.65;;;;;;;3.56;50.15;99025.90;1773050;79;21155;-78
2021/01/30 09:50:45;;;;;;;67.80;37.35;;;;;;;3.66;50.14;99017.89;1802483;79;21643;-77
2021/01/30 09:53:14;;;;;;;67.17;42.78;;;;;;;3.75;50.13;99008.55;1788856;79;21670;-78
2021/01/30 09:55:42;;;;;;;60.43;36.17;;;;;;;3.87;50.06;99009.18;1792710;78;22747;-78
2021/01/30 09:58:16;;;;;;;50.60;30.92;;;;;;;4.00;49.99;99002.19;1770087;79;21591;-78
2021/01/30 10:00:45;;;;;;;36.28;23.27;;;;;;;4.12;49.93;99000.12;1770857;81;21144;-78
2021/01/30 10:03:20;;;;;;;32.85;21.35;;;;;;;4.27;49.82;99001.22;1771077;81;21642;-78
2021/01/30 10:05:51;;;;;;;32.78;21.00;;;;;;;4.40;49.67;99003.48;1799889;79;21065;-78
2021/01/30 10:08:30;;;;;;;28.38;19.27;;;;;;;4.50;49.44;98997.12;1802643;79;22100;-77
2021/01/30 10:11:09;;;;;;;31.90;20.85;;;;;;;4.60;49.35;98989.05;1791064;78;21134;-77
2021/01/30 10:13:41;;;;;;;25.05;16.50;;;;;;;4.68;49.30;98982.95;1781663;78;21367;-78
2021/01/30 10:16:12;;;;;;;29.30;19.25;;;;;;;4.77;49.27;98970.10;1779451;79;21136;-78
2021/01/30 10:18:46;;;;;;;31.35;19.92;;;;;;;4.83;49.22;98961.50;1742083;81;21439;-77
2021/01/30 10:21:14;;;;;;;31.48;19.87;;;;;;;4.87;49.20;98958.05;1770924;81;21471;-77
2021/01/30 10:23:48;;;;;;;27.98;17.55;;;;;;;4.89;49.26;98953.40;1770634;81;21127;-78
2021/01/30 10:26:22;;;;;;;34.75;22.35;;;;;;;4.93;49.35;98944.96;1770820;81;21451;-77
2021/01/30 10:28:54;;;;;;;43.15;26.60;;;;;;;4.98;49.45;98943.16;1773409;79;21096;-78
2021/01/30 10:31:32;;;;;;;41.65;25.95;;;;;;;5.03;49.53;98937.70;1771713;78;21104;-78
2021/01/30 10:34:18;;;;;;;45.28;26.10;;;;;;;5.08;49.67;98934.06;1791897;79;21410;-79
2021/01/30 10:37:18;;;;;;;45.05;27.35;;;;;;;5.12;49.75;98941.72;1771794;79;21188;-77
2021/01/30 10:40:00;;;;;;;39.92;24.95;;;;;;;5.16;49.87;98939.08;1697155;84;21263;-79
2021/01/30 10:42:31;;;;;;;33.42;21.62;;;;;;;5.21;49.94;98932.29;1769857;78;21085;-76
2021/01/30 10:45:03;;;;;;;31.95;20.88;;;;;;;5.27;49.86;98928.19;1770692;79;21117;-77
2021/01/30 10:47:31;;;;;;;33.20;20.80;;;;;;;5.28;49.76;98918.72;1769988;81;21385;-78
2021/01/30 10:50:14;;;;;;;32.20;20.88;;;;;;;5.28;49.84;98904.62;1774188;78;21132;-77
2021/01/30 10:52:42;;;;;;;47.00;25.90;;;;;;;5.26;49.95;98906.59;1781686;78;21096;-78
2021/01/30 10:55:31;;;;;;;44.73;27.10;;;;;;;5.25;50.04;98899.12;1791316;78;21104;-78
2021/01/30 10:58:15;;;;;;;35.13;22.35;;;;;;;5.27;50.16;98904.29;1777440;79;21177;-78
2021/01/30 11:00:59;;;;;;;37.75;23.18;;;;;;;5.32;50.23;98900.14;1749329;78;21370;-78
2021/01/30 11:03:51;;;;;;;37.15;22.58;;;;;;;5.35;50.22;98897.14;1773926;79;21108;-77
2021/01/30 11:06:32;;;;;;;42.00;26.52;;;;;;;5.41;50.23;98887.72;1795533;79;21105;-78
2021/01/30 11:09:20;;;;;;;50.95;30.77;;;;;;;5.46;50.28;98881.41;1786041;78;21093;-78
2021/01/30 11:11:49;;;;;;;38.67;21.55;;;;;;;5.49;50.38;98882.39;1771440;78;21113;-78
2021/01/30 11:14:31;;;;;;;30.90;19.90;;;;;;;5.50;50.42;98878.77;1776606;78;21410;-80
2021/01/30 11:17:00;;;;;;;28.45;18.62;;;;;;;5.47;50.53;98871.13;1770604;81;21623;-78
2021/01/30 11:19:39;;;;;;;30.72;18.48;;;;;;;5.39;50.75;98868.95;1770174;81;21536;-78
2021/01/30 11:22:20;;;;;;;26.40;17.82;;;;;;;5.31;51.02;98865.78;1777961;78;21184;-78
2021/01/30 11:25:09;;;;;;;32.53;20.77;;;;;;;5.25;51.24;98862.46;1786935;79;21168;-78
2021/01/30 11:27:45;;;;;;;27.70;18.17;;;;;;;5.22;51.47;98853.02;1793174;78;21456;-78
2021/01/30 11:30:22;;;;;;;35.38;22.93;;;;;;;5.24;51.65;98850.19;1771287;79;21137;-77
2021/01/30 11:33:17;;;;;;;33.53;22.17;;;;;;;5.25;51.81;98843.88;1797805;78;21144;-77
2021/01/30 11:35:48;;;;;;;31.52;20.55;;;;;;;5.31;51.93;98833.92;1796716;79;21168;-77
2021/01/30 11:38:22;;;;;;;39.13;25.52;;;;;;;5.41;51.92;98825.83;1788923;78;21105;-77
2021/01/30 11:40:52;;;;;;;32.40;20.48;;;;;;;5.45;51.96;98821.81;1792597;79;21366;-77
2021/01/30 11:43:20;;;;;;;32.20;22.58;;;;;;;5.49;51.97;98816.51;1801960;79;21120;-78
2021/01/30 11:45:48;;;;;;;31.65;20.00;;;;;;;5.53;52.01;98815.19;1801847;79;21106;-77
2021/01/30 11:48:17;;;;;;;27.37;18.50;;;;;;;5.55;52.08;98808.72;1802318;79;21897;-77
2021/01/30 11:50:47;;;;;;;31.75;20.43;;;;;;;5.60;52.07;98807.72;1769708;81;21108;-77
2021/01/30 11:53:18;;;;;;;37.00;22.62;;;;;;;5.60;52.11;98813.53;1773075;79;21368;-77
2021/01/30 11:55:46;;;;;;;37.50;24.72;;;;;;;5.60;52.17;98803.73;1774126;79;21200;-77
2021/01/30 11:58:15;;;;;;;33.90;21.62;;;;;;;5.69;52.16;98799.25;1777283;79;21191;-77
2021/01/30 12:00:42;;;;;;;36.45;21.25;;;;;;;5.78;52.07;98797.42;1800963;79;21527;-77
2021/01/30 12:03:25;;;;;;;40.95;25.48;;;;;;;5.84;52.06;98790.09;1799927;79;21200;-77
2021/01/30 12:05:53;;;;;;;38.85;24.90;;;;;;;5.91;52.02;98786.28;1770713;81;21369;-77
2021/01/30 12:08:21;;;;;;;33.98;22.55;;;;;;;5.96;51.96;98788.78;1769432;81;21231;-78
2021/01/30 12:10:52;;;;;;;42.33;26.55;;;;;;;6.00;52.01;98782.13;1769050;81;21173;-77